createdAt,value
2022-07-29T00:00:13.561Z,16.91
2022-07-29T00:03:00.508Z,16.86
2022-07-29T00:05:30.406Z,16.85
2022-07-29T00:08:02.539Z,16.81
2022-07-29T00:10:29.495Z,16.79
2022-07-29T00:12:58.447Z,16.78
2022-07-29T00:15:25.779Z,16.81
2022-07-29T00:17:52.737Z,16.78
2022-07-29T00:20:19.694Z,16.74
2022-07-29T00:22:46.824Z,16.75
2022-07-29T00:25:21.064Z,16.71
2022-07-29T00:27:50.531Z,16.69
2022-07-29T00:30:17.860Z,16.70
2022-07-29T00:32:44.940Z,16.69
2022-07-29T00:35:30.199Z,16.68
2022-07-29T00:37:57.350Z,16.65
2022-07-29T00:40:29.674Z,16.61
2022-07-29T00:42:56.655Z,16.58
2022-07-29T00:45:23.807Z,16.52
2022-07-29T00:47:52.997Z,16.51
2022-07-29T00:50:19.932Z,16.50
2022-07-29T00:52:47.252Z,16.48
2022-07-29T00:55:16.372Z,16.48
2022-07-29T00:57:53.673Z,16.46
2022-07-29T01:00:26.940Z,16.46
2022-07-29T01:02:54.609Z,16.48
2022-07-29T01:05:24.616Z,16.52
2022-07-29T01:07:57.394Z,16.52
2022-07-29T01:10:47.879Z,16.54
2022-07-29T01:13:24.505Z,16.57
2022-07-29T01:16:01.944Z,16.56
2022-07-29T01:18:46.681Z,16.52
2022-07-29T01:21:51.334Z,16.46
2022-07-29T01:24:44.506Z,16.41
2022-07-29T01:27:53.674Z,16.35
2022-07-29T01:30:25.531Z,16.24
2022-07-29T01:33:00.886Z,16.20
2022-07-29T01:35:41.284Z,16.15
2022-07-29T01:38:21.092Z,16.09
2022-07-29T01:40:59.372Z,16.04
2022-07-29T01:43:46.164Z,16.03
2022-07-29T01:46:20.766Z,15.98
2022-07-29T01:48:51.398Z,15.96
2022-07-29T01:51:29.776Z,15.93
2022-07-29T01:54:02.710Z,15.88
2022-07-29T01:56:33.247Z,15.85
2022-07-29T01:59:05.982Z,15.81
2022-07-29T02:01:35.498Z,15.79
2022-07-29T02:04:08.435Z,15.70
2022-07-29T02:06:48.224Z,15.58
2022-07-29T02:09:26.498Z,15.52
2022-07-29T02:11:56.587Z,15.46
2022-07-29T02:14:25.050Z,15.42
2022-07-29T02:17:04.414Z,15.39
2022-07-29T02:19:40.895Z,15.43
2022-07-29T02:22:11.835Z,15.47
2022-07-29T02:24:45.556Z,15.49
2022-07-29T02:27:14.889Z,15.51
2022-07-29T02:29:42.676Z,15.54
2022-07-29T02:32:37.650Z,15.53
2022-07-29T02:35:15.430Z,15.53
2022-07-29T02:38:06.386Z,15.57
2022-07-29T02:40:40.503Z,15.57
2022-07-29T02:43:09.660Z,15.56
2022-07-29T02:45:37.228Z,15.50
2022-07-29T02:48:11.075Z,15.49
2022-07-29T02:51:09.021Z,15.49
2022-07-29T02:53:45.071Z,15.45
2022-07-29T02:56:17.648Z,15.41
2022-07-29T02:58:56.730Z,15.42
2022-07-29T03:01:26.237Z,15.43
2022-07-29T03:03:55.087Z,15.40
2022-07-29T03:06:28.879Z,15.39
2022-07-29T03:09:13.562Z,15.35
2022-07-29T03:11:49.828Z,15.31
2022-07-29T03:14:19.794Z,15.23
2022-07-29T03:16:48.569Z,15.15
2022-07-29T03:19:16.120Z,15.10
2022-07-29T03:21:43.521Z,15.07
2022-07-29T03:24:32.582Z,15.01
2022-07-29T03:27:00.110Z,14.95
2022-07-29T03:29:33.781Z,14.88
2022-07-29T03:32:08.271Z,14.85
2022-07-29T03:34:38.352Z,14.83
2022-07-29T03:37:07.818Z,14.81
2022-07-29T03:39:40.319Z,14.80
2022-07-29T03:42:11.042Z,14.79
2022-07-29T03:44:41.130Z,14.75
2022-07-29T03:47:11.767Z,14.74
2022-07-29T03:49:42.405Z,14.76
2022-07-29T03:52:10.307Z,14.78
2022-07-29T03:54:46.932Z,14.78
2022-07-29T03:57:28.959Z,14.82
2022-07-29T03:59:56.723Z,14.84
2022-07-29T04:02:30.820Z,14.90
2022-07-29T04:04:58.160Z,14.94
2022-07-29T04:07:24.993Z,14.97
2022-07-29T04:09:52.257Z,14.99
2022-07-29T04:12:19.329Z,15.00
2022-07-29T04:14:55.131Z,15.04
2022-07-29T04:17:21.979Z,15.17
2022-07-29T04:19:49.178Z,15.16
2022-07-29T04:22:18.924Z,15.14
2022-07-29T04:24:47.085Z,15.07
2022-07-29T04:27:14.118Z,15.01
2022-07-29T04:29:57.263Z,15.00
2022-07-29T04:32:32.929Z,15.08
2022-07-29T04:35:01.167Z,15.24
2022-07-29T04:37:28.686Z,15.24
2022-07-29T04:39:55.508Z,15.23
2022-07-29T04:42:27.754Z,15.25
2022-07-29T04:45:04.457Z,15.33
2022-07-29T04:47:37.215Z,15.49
2022-07-29T04:50:05.787Z,15.51
2022-07-29T04:52:32.917Z,15.53
2022-07-29T04:55:00.268Z,15.64
2022-07-29T04:57:33.340Z,15.78
2022-07-29T05:00:00.895Z,15.90
2022-07-29T05:02:30.715Z,15.95
2022-07-29T05:05:02.661Z,16.09
2022-07-29T05:07:41.941Z,16.26
2022-07-29T05:10:19.737Z,16.39
2022-07-29T05:12:48.087Z,16.51
2022-07-29T05:16:08.040Z,16.69
2022-07-29T05:19:03.652Z,16.62
2022-07-29T05:21:49.365Z,16.59
2022-07-29T05:24:23.920Z,16.56
2022-07-29T05:27:30.380Z,16.49
2022-07-29T05:30:17.753Z,16.34
2022-07-29T05:33:34.693Z,16.35
2022-07-29T05:36:18.202Z,16.22
2022-07-29T05:38:58.248Z,16.12
2022-07-29T05:41:40.468Z,16.05
2022-07-29T05:44:41.907Z,15.98
2022-07-29T05:47:20.084Z,15.85
2022-07-29T05:49:52.952Z,15.76
2022-07-29T05:52:20.123Z,15.80
2022-07-29T05:54:47.785Z,15.90
2022-07-29T05:57:24.554Z,15.93
2022-07-29T05:59:52.206Z,15.88
2022-07-29T06:02:19.618Z,15.89
2022-07-29T06:05:01.439Z,15.91
2022-07-29T06:07:50.725Z,15.92
2022-07-29T06:10:23.856Z,15.89
2022-07-29T06:12:53.950Z,15.88
2022-07-29T06:15:21.133Z,15.91
2022-07-29T06:18:00.777Z,16.03
2022-07-29T06:20:33.186Z,16.29
2022-07-29T06:23:00.869Z,16.43
2022-07-29T06:25:35.303Z,16.50
2022-07-29T06:28:03.968Z,16.50
2022-07-29T06:30:33.486Z,16.46
2022-07-29T06:33:04.377Z,16.49
2022-07-29T06:35:40.989Z,16.57
2022-07-29T06:38:30.460Z,16.67
2022-07-29T06:41:02.899Z,16.74
2022-07-29T06:43:42.649Z,16.79
2022-07-29T06:46:20.933Z,17.00
2022-07-29T06:48:48.415Z,17.23
2022-07-29T06:51:16.860Z,17.36
2022-07-29T06:53:59.500Z,17.53
2022-07-29T06:56:38.849Z,17.69
2022-07-29T06:59:11.028Z,17.81
2022-07-29T07:01:41.019Z,17.87
2022-07-29T07:04:11.886Z,17.94
2022-07-29T07:06:42.057Z,17.93
2022-07-29T07:09:09.161Z,17.88
2022-07-29T07:11:39.891Z,17.93
2022-07-29T07:14:07.179Z,17.99
2022-07-29T07:16:36.992Z,18.00
2022-07-29T07:19:04.106Z,17.99
2022-07-29T07:21:33.058Z,17.99
2022-07-29T07:24:03.435Z,18.02
2022-07-29T07:26:40.791Z,18.04
2022-07-29T07:29:13.618Z,18.14
2022-07-29T07:31:40.951Z,18.30
2022-07-29T07:34:28.420Z,18.51
2022-07-29T07:36:57.789Z,18.87
2022-07-29T07:39:25.350Z,19.18
2022-07-29T07:41:53.014Z,19.53
2022-07-29T07:44:26.221Z,19.90
2022-07-29T07:46:56.755Z,20.24
2022-07-29T07:49:34.329Z,20.53
2022-07-29T07:52:01.601Z,20.73
2022-07-29T07:54:28.842Z,20.96
2022-07-29T07:56:55.869Z,21.38
2022-07-29T07:59:23.421Z,21.62
2022-07-29T08:01:55.904Z,21.64
2022-07-29T08:04:28.711Z,21.78
2022-07-29T08:06:57.973Z,21.96
2022-07-29T08:09:29.614Z,22.04
2022-07-29T08:12:02.804Z,22.07
2022-07-29T08:14:31.324Z,22.19
2022-07-29T08:17:01.398Z,22.39
2022-07-29T08:19:31.634Z,22.58
2022-07-29T08:22:01.402Z,22.88
2022-07-29T08:24:44.689Z,23.27
2022-07-29T08:27:43.342Z,23.50
2022-07-29T08:30:25.927Z,23.59
2022-07-29T08:33:10.208Z,23.79
2022-07-29T08:35:50.949Z,24.00
2022-07-29T08:38:29.801Z,24.03
2022-07-29T08:41:11.165Z,23.98
2022-07-29T08:43:42.960Z,23.90
2022-07-29T08:46:41.216Z,23.77
2022-07-29T08:49:23.074Z,23.80
2022-07-29T08:51:54.969Z,24.05
2022-07-29T08:54:24.103Z,24.43
2022-07-29T08:56:54.914Z,24.36
2022-07-29T08:59:31.274Z,24.33
2022-07-29T09:02:24.202Z,24.53
2022-07-29T09:04:55.250Z,24.62
2022-07-29T09:07:36.712Z,24.84
2022-07-29T09:10:10.291Z,24.92
2022-07-29T09:12:42.109Z,24.92
2022-07-29T09:15:29.674Z,24.49
2022-07-29T09:18:20.480Z,24.27
2022-07-29T09:21:12.049Z,24.48
2022-07-29T09:24:05.509Z,24.88
2022-07-29T09:26:45.969Z,24.68
2022-07-29T09:29:20.713Z,24.82
2022-07-29T09:32:12.420Z,24.86
2022-07-29T09:34:43.651Z,24.47
2022-07-29T09:37:33.369Z,24.40
2022-07-29T09:40:15.036Z,24.42
2022-07-29T09:42:45.667Z,24.23
2022-07-29T09:45:30.424Z,24.18
2022-07-29T09:48:16.334Z,24.23
2022-07-29T09:50:45.324Z,24.30
2022-07-29T09:53:12.624Z,24.40
2022-07-29T09:56:11.830Z,24.47
2022-07-29T09:58:41.345Z,24.48
2022-07-29T10:01:11.679Z,24.60
2022-07-29T10:03:53.032Z,25.09
2022-07-29T10:06:20.014Z,25.27
2022-07-29T10:08:50.398Z,25.21
2022-07-29T10:11:19.247Z,25.26
2022-07-29T10:13:51.506Z,25.47
2022-07-29T10:16:18.902Z,25.58
2022-07-29T10:18:47.492Z,25.74
2022-07-29T10:21:35.275Z,26.06
2022-07-29T10:24:14.861Z,26.26
2022-07-29T10:26:47.716Z,26.28
2022-07-29T10:29:17.470Z,26.15
2022-07-29T10:32:15.814Z,26.07
2022-07-29T10:35:25.401Z,25.72
2022-07-29T10:38:09.949Z,25.55
2022-07-29T10:41:08.610Z,25.40
2022-07-29T10:43:46.435Z,25.21
2022-07-29T10:46:15.240Z,25.03
2022-07-29T10:49:04.551Z,24.91
2022-07-29T10:52:02.018Z,24.83
2022-07-29T10:54:42.451Z,24.97
2022-07-29T10:57:53.251Z,25.16
2022-07-29T11:00:18.613Z,25.25
2022-07-29T11:02:55.547Z,25.48
2022-07-29T11:05:31.904Z,25.72
2022-07-29T11:08:19.447Z,25.69
2022-07-29T11:10:52.192Z,25.53
2022-07-29T11:13:46.965Z,25.45
2022-07-29T11:16:22.652Z,25.32
2022-07-29T11:19:11.584Z,25.25
2022-07-29T11:24:50.186Z,25.27
2022-07-29T11:27:23.413Z,25.33
2022-07-29T11:30:04.284Z,25.52
2022-07-29T11:32:41.648Z,25.49
2022-07-29T11:35:40.336Z,25.46
2022-07-29T11:38:23.002Z,25.37
2022-07-29T11:41:21.154Z,25.39
2022-07-29T11:43:53.147Z,25.51
2022-07-29T11:46:47.197Z,25.57
2022-07-29T11:49:22.096Z,25.76
2022-07-29T11:52:03.680Z,26.21
2022-07-29T11:54:57.722Z,26.69
2022-07-29T11:58:04.236Z,26.57
2022-07-29T12:01:17.043Z,26.52
2022-07-29T12:04:08.817Z,26.38
2022-07-29T12:06:42.486Z,26.57
2022-07-29T12:09:16.505Z,26.80
2022-07-29T12:11:45.106Z,26.92
2022-07-29T12:14:32.685Z,26.91
2022-07-29T12:17:02.253Z,26.95
2022-07-29T12:19:29.809Z,27.03
2022-07-29T12:22:24.501Z,26.64
2022-07-29T12:25:02.209Z,26.39
2022-07-29T12:27:48.772Z,26.50
2022-07-29T12:30:17.471Z,26.80
2022-07-29T12:32:55.138Z,26.90
2022-07-29T12:35:58.101Z,26.94
2022-07-29T12:38:37.125Z,26.87
2022-07-29T12:41:04.925Z,26.82
2022-07-29T12:43:56.875Z,26.72
2022-07-29T12:46:24.401Z,26.74
2022-07-29T12:48:56.020Z,26.77
2022-07-29T12:51:38.035Z,26.71
2022-07-29T12:54:14.096Z,26.92
2022-07-29T12:56:45.813Z,27.28
2022-07-29T12:59:21.608Z,27.62
2022-07-29T13:02:10.872Z,27.81
2022-07-29T13:05:06.881Z,27.90
2022-07-29T13:07:55.894Z,27.74
2022-07-29T13:10:45.830Z,27.96
2022-07-29T13:13:19.046Z,28.18
2022-07-29T13:16:08.603Z,28.12
2022-07-29T13:18:39.347Z,27.97
2022-07-29T13:21:16.597Z,27.62
2022-07-29T13:23:45.747Z,27.52
2022-07-29T13:26:13.150Z,27.33
2022-07-29T13:28:40.492Z,27.02
2022-07-29T13:31:10.954Z,26.74
2022-07-29T13:33:37.706Z,26.79
2022-07-29T13:36:04.644Z,26.95
2022-07-29T13:38:31.533Z,27.05
2022-07-29T13:40:58.966Z,27.11
2022-07-29T13:43:26.566Z,27.16
2022-07-29T13:45:53.654Z,27.03
2022-07-29T13:48:28.480Z,26.78
2022-07-29T13:51:02.823Z,26.74
2022-07-29T13:53:31.037Z,26.97
2022-07-29T13:55:59.165Z,27.23
2022-07-29T13:58:34.190Z,27.52
2022-07-29T14:01:04.780Z,27.73
2022-07-29T14:03:32.038Z,27.80
2022-07-29T14:06:01.530Z,27.63
2022-07-29T14:08:28.786Z,27.39
2022-07-29T14:10:55.635Z,27.27
2022-07-29T14:13:25.542Z,26.95
2022-07-29T14:15:53.363Z,26.67
2022-07-29T14:18:22.688Z,26.48
2022-07-29T14:20:52.244Z,26.48
2022-07-29T14:23:19.599Z,26.55
2022-07-29T14:25:47.261Z,26.50
2022-07-29T14:28:16.386Z,26.48
2022-07-29T14:30:43.614Z,26.46
2022-07-29T14:33:11.485Z,26.28
2022-07-29T14:35:38.374Z,26.27
2022-07-29T14:38:05.551Z,26.31
2022-07-29T14:40:32.460Z,26.38
2022-07-29T14:42:59.630Z,26.44
2022-07-29T14:45:28.661Z,26.48
2022-07-29T14:47:57.345Z,26.50
2022-07-29T14:50:31.314Z,26.49
2022-07-29T14:53:00.719Z,26.51
2022-07-29T14:55:27.987Z,26.39
2022-07-29T14:58:05.751Z,26.25
2022-07-29T15:00:37.249Z,26.13
2022-07-29T15:03:04.322Z,26.03
2022-07-29T15:05:31.977Z,26.08
2022-07-29T15:07:59.322Z,26.22
2022-07-29T15:10:29.775Z,26.44
2022-07-29T15:12:59.876Z,26.55
2022-07-29T15:15:27.332Z,26.46
2022-07-29T15:17:57.412Z,26.36
2022-07-29T15:20:26.352Z,26.19
2022-07-29T15:22:56.829Z,26.03
2022-07-29T15:25:24.564Z,25.89
2022-07-29T15:28:00.568Z,25.86
2022-07-29T15:30:46.531Z,25.90
2022-07-29T15:33:22.215Z,26.02
2022-07-29T15:35:49.263Z,26.17
2022-07-29T15:38:28.736Z,26.29
2022-07-29T15:41:05.034Z,26.40
2022-07-29T15:43:35.836Z,26.51
2022-07-29T15:46:21.446Z,26.54
2022-07-29T15:48:49.421Z,26.53
2022-07-29T15:51:19.360Z,26.58
2022-07-29T15:53:53.592Z,26.64
2022-07-29T15:56:29.538Z,26.63
2022-07-29T15:59:02.183Z,26.50
2022-07-29T16:01:29.732Z,26.23
2022-07-29T16:04:02.579Z,26.01
2022-07-29T16:06:34.550Z,25.94
2022-07-29T16:09:05.225Z,25.83
2022-07-29T16:11:32.146Z,25.70
2022-07-29T16:13:59.724Z,25.60
2022-07-29T16:16:41.405Z,25.53
2022-07-29T16:19:26.155Z,25.53
2022-07-29T16:21:59.861Z,25.56
2022-07-29T16:24:29.797Z,25.60
2022-07-29T16:27:02.887Z,25.59
2022-07-29T16:29:29.722Z,25.55
2022-07-29T16:31:57.559Z,25.47
2022-07-29T16:34:24.582Z,25.42
2022-07-29T16:36:51.397Z,25.34
2022-07-29T16:39:21.651Z,25.30
2022-07-29T16:41:48.583Z,25.29
2022-07-29T16:44:18.405Z,25.31
2022-07-29T16:46:45.760Z,25.31
2022-07-29T16:49:27.580Z,25.36
2022-07-29T16:51:54.913Z,25.40
2022-07-29T16:54:22.548Z,25.45
2022-07-29T16:56:53.276Z,25.48
2022-07-29T16:59:32.222Z,25.42
2022-07-29T17:02:02.340Z,25.30
2022-07-29T17:04:58.742Z,25.20
2022-07-29T17:07:39.906Z,25.15
2022-07-29T17:10:12.909Z,25.13
2022-07-29T17:12:43.161Z,25.10
2022-07-29T17:15:18.022Z,25.12
2022-07-29T17:17:56.470Z,25.08
2022-07-29T17:20:35.383Z,24.99
2022-07-29T17:23:31.978Z,24.94
2022-07-29T17:26:11.050Z,24.91
2022-07-29T17:28:49.092Z,24.86
2022-07-29T17:31:30.965Z,24.80
2022-07-29T17:34:03.438Z,24.77
2022-07-29T17:36:39.877Z,24.75
2022-07-29T17:39:17.611Z,24.73
2022-07-29T17:42:07.722Z,24.70
2022-07-29T17:44:47.282Z,24.70
2022-07-29T17:47:15.921Z,24.68
2022-07-29T17:49:49.018Z,24.66
2022-07-29T17:52:17.901Z,24.64
2022-07-29T17:55:02.187Z,24.62
2022-07-29T17:57:34.405Z,24.58
2022-07-29T18:00:02.091Z,24.52
2022-07-29T18:02:43.318Z,24.44
2022-07-29T18:05:13.494Z,24.40
2022-07-29T18:07:40.685Z,24.34
2022-07-29T18:10:28.212Z,24.30
2022-07-29T18:12:58.364Z,24.25
2022-07-29T18:15:25.865Z,24.23
2022-07-29T18:17:57.617Z,24.19
2022-07-29T18:20:31.273Z,24.13
2022-07-29T18:22:59.188Z,24.08
2022-07-29T18:25:30.657Z,24.02
2022-07-29T18:28:04.270Z,23.98
2022-07-29T18:30:36.699Z,23.91
2022-07-29T18:33:21.856Z,23.85
2022-07-29T18:35:52.291Z,23.80
2022-07-29T18:38:55.638Z,23.76
2022-07-29T18:41:31.001Z,23.67
2022-07-29T18:44:03.768Z,23.60
2022-07-29T18:46:32.003Z,23.56
2022-07-29T18:49:12.823Z,23.48
2022-07-29T18:51:57.589Z,23.42
2022-07-29T18:54:35.658Z,23.36
2022-07-29T18:57:56.344Z,23.28
2022-07-29T18:59:53.832Z,23.20
2022-07-29T19:02:21.744Z,23.13
2022-07-29T19:04:55.293Z,23.08
2022-07-29T19:07:26.633Z,23.03
2022-07-29T19:10:07.542Z,22.95
2022-07-29T19:12:45.692Z,22.87
2022-07-29T19:15:12.668Z,22.80
2022-07-29T19:17:55.619Z,22.76
2022-07-29T19:20:29.125Z,22.69
2022-07-29T19:23:08.590Z,22.65
2022-07-29T19:25:53.815Z,22.59
2022-07-29T19:28:22.651Z,22.59
2022-07-29T19:30:52.564Z,22.54
2022-07-29T19:33:49.338Z,22.53
2022-07-29T19:36:20.254Z,22.49
2022-07-29T19:38:50.642Z,22.46
2022-07-29T19:41:30.241Z,22.41
2022-07-29T19:44:12.088Z,22.40
2022-07-29T19:46:40.034Z,22.41
2022-07-29T19:49:07.298Z,22.38
2022-07-29T19:51:40.299Z,22.33
2022-07-29T19:54:17.940Z,22.27
2022-07-29T19:56:47.059Z,22.23
2022-07-29T19:59:43.087Z,22.18
2022-07-29T20:02:17.402Z,22.17
2022-07-29T20:04:54.377Z,22.16
2022-07-29T20:07:52.981Z,22.14
2022-07-29T20:10:20.644Z,22.05
2022-07-29T20:12:55.067Z,22.01
2022-07-29T20:15:22.711Z,21.96
2022-07-29T20:17:53.979Z,21.94
2022-07-29T20:20:29.394Z,21.88
2022-07-29T20:22:57.141Z,21.82
2022-07-29T20:25:29.651Z,21.80
2022-07-29T20:27:57.072Z,21.74
2022-07-29T20:30:33.523Z,21.69
2022-07-29T20:33:06.555Z,21.66
2022-07-29T20:35:38.826Z,21.63
2022-07-29T20:38:06.548Z,21.60
2022-07-29T20:40:35.392Z,21.56
2022-07-29T20:43:06.737Z,21.54
2022-07-29T20:45:38.877Z,21.49
2022-07-29T20:48:06.470Z,21.45
2022-07-29T20:50:46.566Z,21.37
2022-07-29T20:53:16.203Z,21.25
2022-07-29T20:55:43.534Z,21.17
2022-07-29T20:58:11.185Z,21.16
2022-07-29T21:00:48.789Z,21.19
2022-07-29T21:03:18.943Z,21.18
2022-07-29T21:05:51.712Z,21.15
2022-07-29T21:08:19.803Z,21.12
2022-07-29T21:10:50.137Z,21.07
2022-07-29T21:13:20.466Z,21.04
2022-07-29T21:15:51.940Z,21.02
2022-07-29T21:18:53.766Z,20.97
2022-07-29T21:21:50.709Z,20.95
2022-07-29T21:24:20.119Z,20.85
2022-07-29T21:27:20.165Z,20.79
2022-07-29T21:29:54.153Z,20.71
2022-07-29T21:32:29.793Z,20.62
2022-07-29T21:35:00.703Z,20.54
2022-07-29T21:37:31.223Z,20.48
2022-07-29T21:40:01.877Z,20.41
2022-07-29T21:42:33.503Z,20.31
2022-07-29T21:45:07.363Z,20.22
2022-07-29T21:47:34.475Z,20.16
2022-07-29T21:50:01.474Z,20.12
2022-07-29T21:52:28.649Z,20.09
2022-07-29T21:55:04.106Z,20.06
2022-07-29T21:57:32.025Z,20.05
2022-07-29T22:00:03.214Z,20.05
2022-07-29T22:02:34.707Z,20.03
2022-07-29T22:05:02.789Z,20.00
2022-07-29T22:07:55.676Z,19.98
2022-07-29T22:10:27.466Z,19.98
2022-07-29T22:13:04.084Z,20.00
2022-07-29T22:15:54.496Z,20.01
2022-07-29T22:18:24.545Z,19.97
2022-07-29T22:20:57.041Z,19.93
2022-07-29T22:23:30.551Z,19.88
2022-07-29T22:25:58.414Z,19.83
2022-07-29T22:28:26.046Z,19.80
2022-07-29T22:31:19.713Z,19.73
2022-07-29T22:34:12.749Z,19.69
2022-07-29T22:36:43.569Z,19.71
2022-07-29T22:39:11.034Z,19.71
2022-07-29T22:41:46.231Z,19.65
2022-07-29T22:44:24.508Z,19.63
2022-07-29T22:46:54.787Z,19.58
2022-07-29T22:49:25.028Z,19.55
2022-07-29T22:51:55.844Z,19.53
2022-07-29T22:54:28.525Z,19.51
2022-07-29T22:56:59.052Z,19.49
2022-07-29T22:59:26.512Z,19.45
2022-07-29T23:02:12.417Z,19.40
2022-07-29T23:04:46.997Z,19.34
2022-07-29T23:07:15.964Z,19.31
2022-07-29T23:09:57.831Z,19.30
2022-07-29T23:12:30.900Z,19.25
2022-07-29T23:15:04.416Z,19.19
2022-07-29T23:17:39.946Z,19.17
2022-07-29T23:20:14.850Z,19.17
2022-07-29T23:23:07.088Z,19.18
2022-07-29T23:25:51.869Z,19.13
2022-07-29T23:28:35.017Z,19.07
2022-07-29T23:31:13.153Z,18.99
2022-07-29T23:33:53.124Z,18.95
2022-07-29T23:36:26.176Z,18.95
2022-07-29T23:39:09.638Z,18.93
2022-07-29T23:41:40.038Z,19.05
2022-07-29T23:44:34.335Z,19.12
2022-07-29T23:47:28.617Z,19.15
2022-07-29T23:50:12.040Z,19.23
2022-07-29T23:52:50.910Z,19.39
2022-07-29T23:55:36.665Z,19.33
2022-07-29T23:58:10.994Z,19.23
